sensor_id;sensor_type;location;lat;lon;timestamp;pressure;altitude;pressure_sealevel;temperature;humidity
73024;BME280;61199;47.526;8.538;2022-12-29T00:00:13;96379.69;;;7.43;54.44
73024;BME280;61199;47.526;8.538;2022-12-29T00:02:40;96380.28;;;7.36;55.53
73024;BME280;61199;47.526;8.538;2022-12-29T00:05:07;96377.41;;;7.28;55.34
73024;BME280;61199;47.526;8.538;2022-12-29T00:07:33;96369.81;;;7.14;55.50
73024;BME280;61199;47.526;8.538;2022-12-29T00:09:59;96370.72;;;7.02;56.19
73024;BME280;61199;47.526;8.538;2022-12-29T00:12:26;96375.34;;;6.98;56.79
73024;BME280;61199;47.526;8.538;2022-12-29T00:15:12;96366.00;;;6.96;56.45
73024;BME280;61199;47.526;8.538;2022-12-29T00:17:57;96372.84;;;6.97;56.62
73024;BME280;61199;47.526;8.538;2022-12-29T00:20:23;96358.53;;;6.91;57.10
73024;BME280;61199;47.526;8.538;2022-12-29T00:23:08;96355.66;;;6.83;57.55
73024;BME280;61199;47.526;8.538;2022-12-29T00:25:54;96362.16;;;6.78;57.72
73024;BME280;61199;47.526;8.538;2022-12-29T00:28:39;96355.50;;;6.74;57.64
73024;BME280;61199;47.526;8.538;2022-12-29T00:31:24;96359.19;;;6.82;57.55
73024;BME280;61199;47.526;8.538;2022-12-29T00:34:11;96353.13;;;6.71;58.42
73024;BME280;61199;47.526;8.538;2022-12-29T00:36:56;96353.47;;;6.66;58.84
73024;BME280;61199;47.526;8.538;2022-12-29T00:39:23;96353.22;;;6.69;58.47
73024;BME280;61199;47.526;8.538;2022-12-29T00:42:09;96348.75;;;6.71;58.72
73024;BME280;61199;47.526;8.538;2022-12-29T00:44:54;96359.41;;;6.79;58.02
73024;BME280;61199;47.526;8.538;2022-12-29T00:47:20;96355.38;;;6.75;58.54
73024;BME280;61199;47.526;8.538;2022-12-29T00:49:47;96351.94;;;6.75;58.89
73024;BME280;61199;47.526;8.538;2022-12-29T00:52:13;96354.69;;;6.73;59.33
73024;BME280;61199;47.526;8.538;2022-12-29T00:54:41;96358.09;;;6.74;59.26
73024;BME280;61199;47.526;8.538;2022-12-29T00:57:09;96361.31;;;6.77;58.81
73024;BME280;61199;47.526;8.538;2022-12-29T00:59:37;96373.78;;;6.85;58.72
73024;BME280;61199;47.526;8.538;2022-12-29T01:02:03;96369.97;;;6.89;57.81
73024;BME280;61199;47.526;8.538;2022-12-29T01:04:30;96371.03;;;6.86;58.17
73024;BME280;61199;47.526;8.538;2022-12-29T01:06:56;96367.47;;;6.87;58.83
73024;BME280;61199;47.526;8.538;2022-12-29T01:09:23;96373.09;;;6.94;58.40
73024;BME280;61199;47.526;8.538;2022-12-29T01:12:09;96372.41;;;7.03;57.96
73024;BME280;61199;47.526;8.538;2022-12-29T01:14:36;96362.34;;;6.98;58.15
73024;BME280;61199;47.526;8.538;2022-12-29T01:17:03;96358.44;;;7.04;58.37
73024;BME280;61199;47.526;8.538;2022-12-29T01:19:29;96359.53;;;7.23;57.78
73024;BME280;61199;47.526;8.538;2022-12-29T01:21:56;96360.81;;;7.18;57.83
73024;BME280;61199;47.526;8.538;2022-12-29T01:24:22;96357.28;;;7.30;57.25
73024;BME280;61199;47.526;8.538;2022-12-29T01:26:50;96357.06;;;7.66;56.85
73024;BME280;61199;47.526;8.538;2022-12-29T01:29:16;96349.03;;;7.58;56.85
73024;BME280;61199;47.526;8.538;2022-12-29T01:31:43;96357.56;;;7.71;57.06
73024;BME280;61199;47.526;8.538;2022-12-29T01:34:10;96351.03;;;7.87;56.64
73024;BME280;61199;47.526;8.538;2022-12-29T01:36:36;96352.34;;;7.82;56.98
73024;BME280;61199;47.526;8.538;2022-12-29T01:39:03;96363.00;;;7.79;57.71
73024;BME280;61199;47.526;8.538;2022-12-29T01:41:29;96357.88;;;7.88;58.39
73024;BME280;61199;47.526;8.538;2022-12-29T01:43:57;96361.56;;;7.97;58.29
73024;BME280;61199;47.526;8.538;2022-12-29T01:49:23;96345.28;;;8.15;58.83
73024;BME280;61199;47.526;8.538;2022-12-29T01:52:00;96350.28;;;8.07;59.22
73024;BME280;61199;47.526;8.538;2022-12-29T01:54:32;96352.66;;;8.10;59.53
73024;BME280;61199;47.526;8.538;2022-12-29T01:57:01;96343.53;;;8.16;60.41
73024;BME280;61199;47.526;8.538;2022-12-29T01:59:33;96346.59;;;8.21;61.00
73024;BME280;61199;47.526;8.538;2022-12-29T02:02:01;96341.38;;;8.32;61.05
73024;BME280;61199;47.526;8.538;2022-12-29T02:04:30;96345.88;;;8.41;61.94
73024;BME280;61199;47.526;8.538;2022-12-29T02:07:04;96350.19;;;8.51;62.27
73024;BME280;61199;47.526;8.538;2022-12-29T02:09:32;96342.53;;;8.70;62.01
73024;BME280;61199;47.526;8.538;2022-12-29T02:11:59;96345.50;;;8.76;62.28
73024;BME280;61199;47.526;8.538;2022-12-29T02:14:26;96342.34;;;8.82;62.21
73024;BME280;61199;47.526;8.538;2022-12-29T02:25:38;96327.28;;;9.06;62.23
73024;BME280;61199;47.526;8.538;2022-12-29T02:28:31;96328.81;;;9.09;62.22
73024;BME280;61199;47.526;8.538;2022-12-29T02:31:13;96336.00;;;9.16;62.36
73024;BME280;61199;47.526;8.538;2022-12-29T02:34:22;96333.41;;;9.16;62.61
73024;BME280;61199;47.526;8.538;2022-12-29T02:39:22;96313.09;;;9.29;62.78
73024;BME280;61199;47.526;8.538;2022-12-29T02:47:03;96314.69;;;9.41;62.50
73024;BME280;61199;47.526;8.538;2022-12-29T02:49:36;96321.59;;;9.42;62.52
73024;BME280;61199;47.526;8.538;2022-12-29T02:52:18;96317.88;;;9.45;62.55
73024;BME280;61199;47.526;8.538;2022-12-29T02:54:48;96315.00;;;9.48;62.67
73024;BME280;61199;47.526;8.538;2022-12-29T02:57:30;96320.22;;;9.48;63.05
73024;BME280;61199;47.526;8.538;2022-12-29T03:00:12;96319.56;;;9.55;62.79
73024;BME280;61199;47.526;8.538;2022-12-29T03:03:16;96315.31;;;9.54;62.46
73024;BME280;61199;47.526;8.538;2022-12-29T03:08:37;96296.47;;;9.60;62.77
73024;BME280;61199;47.526;8.538;2022-12-29T03:11:15;96307.38;;;9.65;62.97
73024;BME280;61199;47.526;8.538;2022-12-29T03:14:29;96297.88;;;9.64;62.84
73024;BME280;61199;47.526;8.538;2022-12-29T03:17:28;96303.78;;;9.66;63.02
73024;BME280;61199;47.526;8.538;2022-12-29T03:20:03;96296.66;;;9.68;62.97
73024;BME280;61199;47.526;8.538;2022-12-29T03:22:32;96301.16;;;9.66;63.16
73024;BME280;61199;47.526;8.538;2022-12-29T03:25:18;96287.69;;;9.61;63.67
73024;BME280;61199;47.526;8.538;2022-12-29T03:27:51;96296.66;;;9.68;63.21
73024;BME280;61199;47.526;8.538;2022-12-29T03:30:19;96291.16;;;9.71;63.14
73024;BME280;61199;47.526;8.538;2022-12-29T03:32:48;96287.84;;;9.69;63.17
73024;BME280;61199;47.526;8.538;2022-12-29T03:35:20;96280.97;;;9.78;62.93
73024;BME280;61199;47.526;8.538;2022-12-29T03:37:58;96284.84;;;9.83;62.50
73024;BME280;61199;47.526;8.538;2022-12-29T03:40:27;96297.25;;;9.81;62.82
73024;BME280;61199;47.526;8.538;2022-12-29T03:42:55;96286.25;;;9.87;62.94
73024;BME280;61199;47.526;8.538;2022-12-29T03:45:22;96297.25;;;9.81;63.30
73024;BME280;61199;47.526;8.538;2022-12-29T03:47:48;96285.69;;;9.93;62.86
73024;BME280;61199;47.526;8.538;2022-12-29T03:50:15;96293.69;;;9.92;63.11
73024;BME280;61199;47.526;8.538;2022-12-29T03:52:43;96302.06;;;9.86;64.30
73024;BME280;61199;47.526;8.538;2022-12-29T03:55:10;96302.91;;;9.86;64.22
73024;BME280;61199;47.526;8.538;2022-12-29T03:57:36;96297.25;;;9.81;64.81
73024;BME280;61199;47.526;8.538;2022-12-29T04:00:05;96298.88;;;9.82;64.66
73024;BME280;61199;47.526;8.538;2022-12-29T04:02:32;96299.81;;;9.72;65.32
73024;BME280;61199;47.526;8.538;2022-12-29T04:04:59;96291.66;;;9.65;65.92
73024;BME280;61199;47.526;8.538;2022-12-29T04:07:26;96299.09;;;9.60;65.73
73024;BME280;61199;47.526;8.538;2022-12-29T04:09:52;96293.88;;;9.60;66.07
73024;BME280;61199;47.526;8.538;2022-12-29T04:12:18;96304.72;;;9.56;66.03
73024;BME280;61199;47.526;8.538;2022-12-29T04:14:45;96290.00;;;9.64;65.75
73024;BME280;61199;47.526;8.538;2022-12-29T04:17:11;96287.81;;;9.60;66.09
73024;BME280;61199;47.526;8.538;2022-12-29T04:19:38;96286.28;;;9.57;66.00
73024;BME280;61199;47.526;8.538;2022-12-29T04:22:04;96280.00;;;9.69;65.78
73024;BME280;61199;47.526;8.538;2022-12-29T04:24:31;96279.56;;;9.64;65.71
73024;BME280;61199;47.526;8.538;2022-12-29T04:26:57;96278.47;;;9.67;65.85
73024;BME280;61199;47.526;8.538;2022-12-29T04:29:23;96270.75;;;9.65;65.99
73024;BME280;61199;47.526;8.538;2022-12-29T04:31:50;96277.06;;;9.63;65.87
73024;BME280;61199;47.526;8.538;2022-12-29T04:34:16;96272.69;;;9.63;65.86
73024;BME280;61199;47.526;8.538;2022-12-29T04:36:43;96280.53;;;9.63;65.78
73024;BME280;61199;47.526;8.538;2022-12-29T04:39:10;96284.78;;;9.64;65.75
73024;BME280;61199;47.526;8.538;2022-12-29T04:41:36;96298.47;;;9.77;65.44
73024;BME280;61199;47.526;8.538;2022-12-29T04:44:02;96280.84;;;9.79;64.98
73024;BME280;61199;47.526;8.538;2022-12-29T04:46:29;96280.41;;;9.74;65.47
73024;BME280;61199;47.526;8.538;2022-12-29T04:48:56;96265.31;;;9.87;64.70
73024;BME280;61199;47.526;8.538;2022-12-29T04:51:22;96271.34;;;9.78;64.72
73024;BME280;61199;47.526;8.538;2022-12-29T04:53:48;96266.94;;;9.79;65.07
73024;BME280;61199;47.526;8.538;2022-12-29T04:56:15;96266.94;;;9.69;64.34
73024;BME280;61199;47.526;8.538;2022-12-29T04:58:41;96276.66;;;9.67;64.61
73024;BME280;61199;47.526;8.538;2022-12-29T05:01:07;96279.84;;;9.61;64.54
73024;BME280;61199;47.526;8.538;2022-12-29T05:03:34;96278.03;;;9.62;64.24
73024;BME280;61199;47.526;8.538;2022-12-29T05:06:00;96277.69;;;9.76;63.55
73024;BME280;61199;47.526;8.538;2022-12-29T05:08:27;96279.91;;;9.80;63.18
73024;BME280;61199;47.526;8.538;2022-12-29T05:10:54;96274.38;;;9.83;62.84
73024;BME280;61199;47.526;8.538;2022-12-29T05:13:20;96282.84;;;9.66;62.35
73024;BME280;61199;47.526;8.538;2022-12-29T05:15:53;96286.31;;;9.67;62.83
73024;BME280;61199;47.526;8.538;2022-12-29T05:18:20;96269.22;;;9.63;62.47
73024;BME280;61199;47.526;8.538;2022-12-29T05:20:47;96278.44;;;9.57;62.61
73024;BME280;61199;47.526;8.538;2022-12-29T05:23:14;96274.03;;;9.58;62.18
73024;BME280;61199;47.526;8.538;2022-12-29T05:25:43;96271.31;;;9.59;62.15
73024;BME280;61199;47.526;8.538;2022-12-29T05:28:12;96270.84;;;9.54;61.86
73024;BME280;61199;47.526;8.538;2022-12-29T05:30:39;96274.44;;;9.63;61.71
73024;BME280;61199;47.526;8.538;2022-12-29T05:33:06;96270.75;;;9.65;61.35
73024;BME280;61199;47.526;8.538;2022-12-29T05:35:33;96268.56;;;9.70;61.18
73024;BME280;61199;47.526;8.538;2022-12-29T05:37:59;96289.69;;;9.88;60.88
73024;BME280;61199;47.526;8.538;2022-12-29T05:40:25;96269.94;;;9.74;61.56
73024;BME280;61199;47.526;8.538;2022-12-29T05:42:52;96279.03;;;9.70;61.27
73024;BME280;61199;47.526;8.538;2022-12-29T05:45:18;96284.09;;;9.62;61.92
73024;BME280;61199;47.526;8.538;2022-12-29T05:47:44;96274.22;;;9.66;61.51
73024;BME280;61199;47.526;8.538;2022-12-29T05:50:11;96292.75;;;9.63;61.87
73024;BME280;61199;47.526;8.538;2022-12-29T05:52:37;96277.38;;;9.69;61.97
73024;BME280;61199;47.526;8.538;2022-12-29T05:55:04;96270.13;;;9.82;61.68
73024;BME280;61199;47.526;8.538;2022-12-29T05:57:31;96274.38;;;9.83;62.18
73024;BME280;61199;47.526;8.538;2022-12-29T05:59:58;96263.91;;;9.83;62.07
73024;BME280;61199;47.526;8.538;2022-12-29T06:02:25;96282.38;;;9.82;62.32
73024;BME280;61199;47.526;8.538;2022-12-29T06:04:51;96278.81;;;9.92;62.63
73024;BME280;61199;47.526;8.538;2022-12-29T06:07:18;96286.25;;;9.97;62.49
73024;BME280;61199;47.526;8.538;2022-12-29T06:09:44;96284.72;;;9.94;62.59
73024;BME280;61199;47.526;8.538;2022-12-29T06:12:10;96286.41;;;9.95;62.57
73024;BME280;61199;47.526;8.538;2022-12-29T06:14:37;96291.78;;;9.94;62.78
73024;BME280;61199;47.526;8.538;2022-12-29T06:17:03;96272.78;;;9.92;63.35
73024;BME280;61199;47.526;8.538;2022-12-29T06:19:29;96267.94;;;9.97;63.62
73024;BME280;61199;47.526;8.538;2022-12-29T06:21:56;96271.13;;;10.00;63.71
73024;BME280;61199;47.526;8.538;2022-12-29T06:24:22;96271.44;;;10.07;63.74
73024;BME280;61199;47.526;8.538;2022-12-29T06:26:49;96269.94;;;10.04;64.22
73024;BME280;61199;47.526;8.538;2022-12-29T06:29:15;96265.25;;;10.17;64.35
73024;BME280;61199;47.526;8.538;2022-12-29T06:31:44;96269.16;;;10.32;64.18
73024;BME280;61199;47.526;8.538;2022-12-29T06:34:12;96250.13;;;10.30;64.45
73024;BME280;61199;47.526;8.538;2022-12-29T06:36:38;96227.53;;;10.29;64.73
73024;BME280;61199;47.526;8.538;2022-12-29T06:39:05;96262.50;;;10.28;64.74
73024;BME280;61199;47.526;8.538;2022-12-29T06:41:31;96251.06;;;10.29;64.86
73024;BME280;61199;47.526;8.538;2022-12-29T06:43:58;96252.63;;;10.41;64.55
73024;BME280;61199;47.526;8.538;2022-12-29T06:46:24;96256.59;;;10.45;64.56
73024;BME280;61199;47.526;8.538;2022-12-29T06:48:51;96254.81;;;10.36;65.05
73024;BME280;61199;47.526;8.538;2022-12-29T06:51:17;96259.63;;;10.31;65.33
73024;BME280;61199;47.526;8.538;2022-12-29T06:53:44;96263.75;;;10.24;65.63
73024;BME280;61199;47.526;8.538;2022-12-29T06:56:10;96284.31;;;10.29;65.27
73024;BME280;61199;47.526;8.538;2022-12-29T06:58:37;96261.31;;;10.32;65.48
73024;BME280;61199;47.526;8.538;2022-12-29T07:01:03;96246.53;;;10.31;65.56
73024;BME280;61199;47.526;8.538;2022-12-29T07:03:30;96257.16;;;10.39;65.38
73024;BME280;61199;47.526;8.538;2022-12-29T07:05:56;96247.09;;;10.44;65.11
73024;BME280;61199;47.526;8.538;2022-12-29T07:08:24;96248.06;;;10.43;65.11
73024;BME280;61199;47.526;8.538;2022-12-29T07:10:50;96259.75;;;10.39;65.30
73024;BME280;61199;47.526;8.538;2022-12-29T07:13:17;96253.56;;;10.40;65.43
73024;BME280;61199;47.526;8.538;2022-12-29T07:15:43;96264.75;;;10.42;65.23
73024;BME280;61199;47.526;8.538;2022-12-29T07:18:10;96243.09;;;10.40;65.50
73024;BME280;61199;47.526;8.538;2022-12-29T07:20:36;96264.59;;;10.44;65.32
73024;BME280;61199;47.526;8.538;2022-12-29T07:23:03;96247.63;;;10.38;65.59
73024;BME280;61199;47.526;8.538;2022-12-29T07:25:29;96248.59;;;10.37;65.46
73024;BME280;61199;47.526;8.538;2022-12-29T07:27:55;96254.53;;;10.39;65.12
73024;BME280;61199;47.526;8.538;2022-12-29T07:30:22;96269.81;;;10.44;65.14
73024;BME280;61199;47.526;8.538;2022-12-29T07:32:48;96265.69;;;10.51;64.62
73024;BME280;61199;47.526;8.538;2022-12-29T07:35:15;96261.00;;;10.54;64.36
73024;BME280;61199;47.526;8.538;2022-12-29T07:37:42;96281.13;;;10.54;64.09
73024;BME280;61199;47.526;8.538;2022-12-29T07:40:10;96278.94;;;10.59;64.13
73024;BME280;61199;47.526;8.538;2022-12-29T07:42:36;96259.50;;;10.61;64.09
73024;BME280;61199;47.526;8.538;2022-12-29T07:45:03;96261.84;;;10.55;64.45
73024;BME280;61199;47.526;8.538;2022-12-29T07:47:30;96266.38;;;10.53;64.26
73024;BME280;61199;47.526;8.538;2022-12-29T07:49:56;96260.47;;;10.51;64.76
73024;BME280;61199;47.526;8.538;2022-12-29T07:52:22;96265.81;;;10.49;64.42
73024;BME280;61199;47.526;8.538;2022-12-29T07:54:49;96288.56;;;10.39;65.26
73024;BME280;61199;47.526;8.538;2022-12-29T07:57:15;96295.31;;;10.23;65.84
73024;BME280;61199;47.526;8.538;2022-12-29T07:59:42;96312.91;;;10.11;66.15
73024;BME280;61199;47.526;8.538;2022-12-29T08:02:10;96314.47;;;10.23;66.02
73024;BME280;61199;47.526;8.538;2022-12-29T08:04:37;96325.34;;;10.19;65.88
73024;BME280;61199;47.526;8.538;2022-12-29T08:07:04;96317.78;;;10.25;65.26
73024;BME280;61199;47.526;8.538;2022-12-29T08:09:30;96308.66;;;10.29;64.78
73024;BME280;61199;47.526;8.538;2022-12-29T08:11:57;96314.47;;;10.23;65.56
73024;BME280;61199;47.526;8.538;2022-12-29T08:14:23;96316.38;;;10.21;65.54
73024;BME280;61199;47.526;8.538;2022-12-29T08:16:49;96314.31;;;10.15;65.30
73024;BME280;61199;47.526;8.538;2022-12-29T08:19:16;96306.56;;;10.04;65.67
73024;BME280;61199;47.526;8.538;2022-12-29T08:21:42;96318.84;;;10.13;65.30
73024;BME280;61199;47.526;8.538;2022-12-29T08:24:09;96311.09;;;10.02;65.74
73024;BME280;61199;47.526;8.538;2022-12-29T08:26:35;96327.16;;;9.98;65.33
73024;BME280;61199;47.526;8.538;2022-12-29T08:29:02;96319.88;;;10.01;65.19
73024;BME280;61199;47.526;8.538;2022-12-29T08:31:28;96318.84;;;10.13;64.84
73024;BME280;61199;47.526;8.538;2022-12-29T08:33:54;96320.75;;;10.11;63.75
73024;BME280;61199;47.526;8.538;2022-12-29T08:36:21;96316.88;;;10.06;64.15
73024;BME280;61199;47.526;8.538;2022-12-29T08:38:47;96331.06;;;10.03;63.92
73024;BME280;61199;47.526;8.538;2022-12-29T08:41:14;96328.97;;;9.97;63.76
73024;BME280;61199;47.526;8.538;2022-12-29T08:43:40;96331.31;;;10.00;64.02
73024;BME280;61199;47.526;8.538;2022-12-29T08:46:06;96333.03;;;10.11;63.34
73024;BME280;61199;47.526;8.538;2022-12-29T08:48:33;96331.22;;;10.11;64.17
73024;BME280;61199;47.526;8.538;2022-12-29T08:50:59;96333.03;;;10.11;63.71
73024;BME280;61199;47.526;8.538;2022-12-29T08:53:26;96332.88;;;10.12;63.60
73024;BME280;61199;47.526;8.538;2022-12-29T08:55:58;96335.66;;;10.20;63.14
73024;BME280;61199;47.526;8.538;2022-12-29T08:58:31;96345.16;;;10.21;62.45
73024;BME280;61199;47.526;8.538;2022-12-29T09:00:58;96340.09;;;10.29;62.73
73024;BME280;61199;47.526;8.538;2022-12-29T09:03:25;96342.84;;;10.37;62.72
73024;BME280;61199;47.526;8.538;2022-12-29T09:06:12;96346.03;;;10.41;62.85
73024;BME280;61199;47.526;8.538;2022-12-29T09:08:38;96341.50;;;10.62;62.82
73024;BME280;61199;47.526;8.538;2022-12-29T09:11:39;96332.41;;;10.75;61.65
73024;BME280;61199;47.526;8.538;2022-12-29T09:13:58;96329.53;;;10.78;61.50
73024;BME280;61199;47.526;8.538;2022-12-29T09:16:25;96337.53;;;10.86;60.89
73024;BME280;61199;47.526;8.538;2022-12-29T09:18:53;96341.41;;;10.92;60.82
73024;BME280;61199;47.526;8.538;2022-12-29T09:21:19;96347.19;;;10.86;60.79
73024;BME280;61199;47.526;8.538;2022-12-29T09:23:45;96364.44;;;10.88;61.14
73024;BME280;61199;47.526;8.538;2022-12-29T09:26:12;96369.09;;;10.85;60.61
73024;BME280;61199;47.526;8.538;2022-12-29T09:28:38;96365.53;;;10.86;60.79
73024;BME280;61199;47.526;8.538;2022-12-29T09:31:05;96347.31;;;10.75;61.05
73024;BME280;61199;47.526;8.538;2022-12-29T09:33:34;96357.38;;;10.79;60.74
73024;BME280;61199;47.526;8.538;2022-12-29T09:36:00;96352.00;;;10.71;60.63
73024;BME280;61199;47.526;8.538;2022-12-29T09:38:28;96358.06;;;10.72;60.25
73024;BME280;61199;47.526;8.538;2022-12-29T09:40:59;96351.16;;;10.71;61.01
73024;BME280;61199;47.526;8.538;2022-12-29T09:43:46;96348.41;;;10.72;61.12
73024;BME280;61199;47.526;8.538;2022-12-29T09:46:34;96358.91;;;10.72;61.31
73024;BME280;61199;47.526;8.538;2022-12-29T09:51:35;96349.53;;;10.79;61.03
73024;BME280;61199;47.526;8.538;2022-12-29T09:57:00;96350.75;;;10.75;61.35
73024;BME280;61199;47.526;8.538;2022-12-29T09:59:41;96347.88;;;10.78;61.12
73024;BME280;61199;47.526;8.538;2022-12-29T10:02:37;96353.94;;;10.88;61.11
73024;BME280;61199;47.526;8.538;2022-12-29T10:05:14;96338.63;;;10.93;61.26
73024;BME280;61199;47.526;8.538;2022-12-29T10:07:55;96329.53;;;10.97;60.81
73024;BME280;61199;47.526;8.538;2022-12-29T10:10:45;96325.09;;;10.98;61.06
73024;BME280;61199;47.526;8.538;2022-12-29T10:13:26;96325.50;;;11.12;60.75
73024;BME280;61199;47.526;8.538;2022-12-29T10:16:04;96325.66;;;11.11;60.36
73024;BME280;61199;47.526;8.538;2022-12-29T10:19:05;96335.97;;;11.12;60.60
73024;BME280;61199;47.526;8.538;2022-12-29T10:21:54;96337.38;;;11.16;60.59
73024;BME280;61199;47.526;8.538;2022-12-29T10:24:26;96336.56;;;11.06;60.49
73024;BME280;61199;47.526;8.538;2022-12-29T10:26:56;96341.81;;;11.06;60.78
73024;BME280;61199;47.526;8.538;2022-12-29T10:29:29;96323.44;;;11.06;60.77
73024;BME280;61199;47.526;8.538;2022-12-29T10:32:06;96323.59;;;11.14;60.47
73024;BME280;61199;47.526;8.538;2022-12-29T10:34:45;96321.34;;;11.19;59.60
73024;BME280;61199;47.526;8.538;2022-12-29T10:37:43;96314.44;;;11.18;59.90
73024;BME280;61199;47.526;8.538;2022-12-29T10:40:33;96305.63;;;11.19;59.93
73024;BME280;61199;47.526;8.538;2022-12-29T10:43:07;96300.78;;;11.24;59.49
73024;BME280;61199;47.526;8.538;2022-12-29T10:45:46;96291.09;;;11.34;59.45
73024;BME280;61199;47.526;8.538;2022-12-29T10:48:26;96307.09;;;11.41;59.23
73024;BME280;61199;47.526;8.538;2022-12-29T10:50:59;96296.16;;;11.45;59.03
73024;BME280;61199;47.526;8.538;2022-12-29T10:53:35;96282.88;;;11.56;58.58
73024;BME280;61199;47.526;8.538;2022-12-29T10:56:14;96295.59;;;11.61;58.25
73024;BME280;61199;47.526;8.538;2022-12-29T10:58:42;96312.84;;;11.63;58.33
73024;BME280;61199;47.526;8.538;2022-12-29T11:01:16;96300.41;;;11.65;58.61
73024;BME280;61199;47.526;8.538;2022-12-29T11:06:42;96284.38;;;11.68;58.64
73024;BME280;61199;47.526;8.538;2022-12-29T11:09:29;96336.72;;;11.69;58.67
73024;BME280;61199;47.526;8.538;2022-12-29T11:12:21;96287.41;;;11.73;58.22
73024;BME280;61199;47.526;8.538;2022-12-29T11:15:01;96278.56;;;11.74;58.86
73024;BME280;61199;47.526;8.538;2022-12-29T11:17:28;96272.72;;;11.80;58.20
73024;BME280;61199;47.526;8.538;2022-12-29T11:19:54;96278.75;;;11.90;57.41
73024;BME280;61199;47.526;8.538;2022-12-29T11:22:23;96283.13;;;11.99;57.43
73024;BME280;61199;47.526;8.538;2022-12-29T11:24:52;96284.97;;;11.89;57.89
73024;BME280;61199;47.526;8.538;2022-12-29T11:27:24;96293.75;;;11.97;57.74
73024;BME280;61199;47.526;8.538;2022-12-29T11:29:52;96277.88;;;11.99;58.04
73024;BME280;61199;47.526;8.538;2022-12-29T11:32:24;96288.50;;;11.97;57.97
73024;BME280;61199;47.526;8.538;2022-12-29T11:34:54;96272.50;;;12.00;57.81
73024;BME280;61199;47.526;8.538;2022-12-29T11:37:27;96263.34;;;12.04;58.01
73024;BME280;61199;47.526;8.538;2022-12-29T11:40:06;96252.47;;;12.17;58.27
73024;BME280;61199;47.526;8.538;2022-12-29T11:42:47;96258.31;;;12.11;58.45
73024;BME280;61199;47.526;8.538;2022-12-29T11:45:21;96252.59;;;11.98;58.99
73024;BME280;61199;47.526;8.538;2022-12-29T11:47:51;96270.31;;;11.96;59.31
73024;BME280;61199;47.526;8.538;2022-12-29T11:50:21;96273.97;;;12.03;59.25
73024;BME280;61199;47.526;8.538;2022-12-29T11:52:50;96266.09;;;12.03;59.62
73024;BME280;61199;47.526;8.538;2022-12-29T11:55:21;96273.31;;;12.01;59.71
73024;BME280;61199;47.526;8.538;2022-12-29T11:57:50;96258.00;;;11.96;60.43
73024;BME280;61199;47.526;8.538;2022-12-29T12:00:21;96238.19;;;12.02;59.80
73024;BME280;61199;47.526;8.538;2022-12-29T12:02:53;96235.22;;;11.97;60.11
73024;BME280;61199;47.526;8.538;2022-12-29T12:05:30;96247.94;;;11.92;60.34
73024;BME280;61199;47.526;8.538;2022-12-29T12:08:05;96238.50;;;11.99;60.12
73024;BME280;61199;47.526;8.538;2022-12-29T12:10:42;96239.47;;;11.98;60.21
73024;BME280;61199;47.526;8.538;2022-12-29T12:13:18;96230.72;;;12.07;60.20
73024;BME280;61199;47.526;8.538;2022-12-29T12:15:51;96230.41;;;12.10;60.00
73024;BME280;61199;47.526;8.538;2022-12-29T12:18:39;96230.41;;;12.10;60.27
73024;BME280;61199;47.526;8.538;2022-12-29T12:21:15;96238.25;;;12.19;60.13
73024;BME280;61199;47.526;8.538;2022-12-29T12:23:57;96229.22;;;12.22;59.86
73024;BME280;61199;47.526;8.538;2022-12-29T12:29:16;96219.84;;;12.19;59.94
73024;BME280;61199;47.526;8.538;2022-12-29T12:31:53;96222.63;;;12.18;59.96
73024;BME280;61199;47.526;8.538;2022-12-29T12:34:36;96226.22;;;12.17;59.96
73024;BME280;61199;47.526;8.538;2022-12-29T12:40:06;96208.81;;;12.16;59.92
73024;BME280;61199;47.526;8.538;2022-12-29T12:43:03;96214.44;;;12.21;59.99
73024;BME280;61199;47.526;8.538;2022-12-29T12:48:28;96204.00;;;12.29;59.85
73024;BME280;61199;47.526;8.538;2022-12-29T12:51:04;96205.81;;;12.46;59.61
73024;BME280;61199;47.526;8.538;2022-12-29T12:59:24;96196.78;;;12.66;58.65
73024;BME280;61199;47.526;8.538;2022-12-29T13:05:09;96187.78;;;12.68;58.67
73024;BME280;61199;47.526;8.538;2022-12-29T13:08:20;96182.97;;;12.64;59.14
73024;BME280;61199;47.526;8.538;2022-12-29T13:11:29;96177.13;;;12.70;59.02
73024;BME280;61199;47.526;8.538;2022-12-29T13:14:10;96178.13;;;12.77;58.93
73024;BME280;61199;47.526;8.538;2022-12-29T13:19:30;96173.72;;;12.77;59.09
73024;BME280;61199;47.526;8.538;2022-12-29T13:22:16;96185.66;;;12.72;59.57
73024;BME280;61199;47.526;8.538;2022-12-29T13:28:18;96190.44;;;12.51;60.48
73024;BME280;61199;47.526;8.538;2022-12-29T13:31:04;96177.81;;;12.37;59.56
73024;BME280;61199;47.526;8.538;2022-12-29T13:34:14;96183.75;;;12.39;60.86
73024;BME280;61199;47.526;8.538;2022-12-29T13:36:48;96182.41;;;12.35;59.96
73024;BME280;61199;47.526;8.538;2022-12-29T13:39:21;96176.19;;;12.36;60.24
73024;BME280;61199;47.526;8.538;2022-12-29T13:41:54;96181.03;;;12.31;60.43
73024;BME280;61199;47.526;8.538;2022-12-29T13:44:31;96176.91;;;12.46;60.43
73024;BME280;61199;47.526;8.538;2022-12-29T13:47:23;96182.19;;;12.28;60.50
73024;BME280;61199;47.526;8.538;2022-12-29T13:49:51;96175.44;;;12.26;60.74
73024;BME280;61199;47.526;8.538;2022-12-29T13:52:44;96182.78;;;12.22;60.96
73024;BME280;61199;47.526;8.538;2022-12-29T13:55:34;96189.91;;;12.30;61.35
73024;BME280;61199;47.526;8.538;2022-12-29T14:01:10;96192.97;;;12.25;61.58
73024;BME280;61199;47.526;8.538;2022-12-29T14:06:29;96187.84;;;12.59;59.61
73024;BME280;61199;47.526;8.538;2022-12-29T14:08:59;96197.03;;;12.55;59.95
73024;BME280;61199;47.526;8.538;2022-12-29T14:11:37;96194.06;;;12.58;59.89
73024;BME280;61199;47.526;8.538;2022-12-29T14:14:29;96198.31;;;12.51;59.88
73024;BME280;61199;47.526;8.538;2022-12-29T14:17:11;96208.06;;;12.41;59.86
73024;BME280;61199;47.526;8.538;2022-12-29T14:19:43;96207.09;;;12.24;60.28
73024;BME280;61199;47.526;8.538;2022-12-29T14:22:11;96203.47;;;12.25;60.26
73024;BME280;61199;47.526;8.538;2022-12-29T14:24:44;96210.84;;;12.22;60.61
73024;BME280;61199;47.526;8.538;2022-12-29T14:34:54;96227.47;;;12.13;61.29
73024;BME280;61199;47.526;8.538;2022-12-29T14:37:31;96233.44;;;12.15;61.05